createdAt,value
2019-05-10T00:06:24.373Z,33
2019-05-10T00:11:11.953Z,32.4
2019-05-10T00:15:59.837Z,33.8
2019-05-10T00:20:46.626Z,34.8
2019-05-10T00:28:27.899Z,32.3
2019-05-10T00:33:14.978Z,31.4
2019-05-10T00:38:02.004Z,32.4
2019-05-10T00:42:49.272Z,34
2019-05-10T00:52:17.601Z,28.8
2019-05-10T00:57:04.941Z,28.3
2019-05-10T01:01:52.863Z,31
2019-05-10T01:06:40.234Z,32.2
2019-05-10T01:14:34.384Z,29.7
2019-05-10T01:19:21.670Z,30.2
2019-05-10T01:24:10.277Z,29.1
2019-05-10T01:28:57.785Z,30.3
2019-05-10T01:38:41.915Z,26.6
2019-05-10T01:43:29.847Z,26.4
2019-05-10T01:48:16.968Z,26.4
2019-05-10T01:53:04.008Z,27.9
2019-05-10T02:01:04.738Z,24.4
2019-05-10T02:05:52.193Z,24.2
2019-05-10T02:10:39.737Z,25.4
2019-05-10T02:15:26.641Z,27.5
2019-05-10T02:23:36.061Z,24.2
2019-05-10T02:28:23.262Z,25
2019-05-10T02:33:10.951Z,25.7
2019-05-10T02:37:58.209Z,27.5
2019-05-10T02:46:08.482Z,25.8
2019-05-10T02:50:56.048Z,25.8
2019-05-10T02:55:42.856Z,25.9
2019-05-10T03:00:29.711Z,27.9
2019-05-10T03:09:47.704Z,25.1
2019-05-10T03:14:34.886Z,24.6
2019-05-10T03:19:23.262Z,24.8
2019-05-10T03:24:10.087Z,24.1
2019-05-10T03:32:25.520Z,21.4
2019-05-10T03:37:12.560Z,22.1
2019-05-10T03:41:59.480Z,22.4
2019-05-10T03:46:47.301Z,22.6
2019-05-10T03:54:27.172Z,20.6
2019-05-10T03:59:16.158Z,20.2
2019-05-10T04:04:03.645Z,19.3
2019-05-10T04:08:50.903Z,20.4
2019-05-10T04:16:35.417Z,17.1
2019-05-10T04:21:23.877Z,18.1
2019-05-10T04:26:12.493Z,19.9
2019-05-10T04:30:59.585Z,19.8
2019-05-10T04:37:04.948Z,17.5
2019-05-10T04:41:52.216Z,19.3
2019-05-10T04:46:39.012Z,19.6
2019-05-10T04:51:27.749Z,21.8
2019-05-10T04:58:53.574Z,18
2019-05-10T05:03:40.825Z,19.8
2019-05-10T05:08:27.647Z,19
2019-05-10T05:13:14.702Z,21.4
2019-05-10T05:21:15.469Z,19.3
2019-05-10T05:26:04.200Z,20.6
2019-05-10T05:30:51.648Z,21.6
2019-05-10T05:41:31.732Z,21.6
2019-05-10T05:46:19.040Z,22.9
2019-05-10T05:51:06.499Z,22.4
2019-05-10T05:55:56.352Z,24.6
2019-05-10T06:02:28.269Z,21.5
2019-05-10T06:07:20.088Z,22.3
2019-05-10T06:12:12.317Z,23.5
2019-05-10T06:21:49.933Z,23
2019-05-10T06:26:37.317Z,26.1
2019-05-10T06:31:25.230Z,26.5
2019-05-10T06:36:13.106Z,30.4
2019-05-10T06:41:41.908Z,26.1
2019-05-10T06:46:31.161Z,26.9
2019-05-10T06:51:18.614Z,27.2
2019-05-10T06:56:05.834Z,29.3
2019-05-10T07:03:28.561Z,28.7
2019-05-10T07:08:20.330Z,29.3
2019-05-10T07:13:08.315Z,28.9
2019-05-10T07:17:56.488Z,34.5
2019-05-10T07:23:16.972Z,29.9
2019-05-10T07:28:09.549Z,28.7
2019-05-10T07:33:03.961Z,32.3
2019-05-10T07:37:53.149Z,34
2019-05-10T07:45:36.403Z,31
2019-05-10T07:50:24.903Z,29.4
2019-05-10T07:55:12.052Z,32
2019-05-10T08:00:03.739Z,32
2019-05-10T08:10:04.832Z,28.7
2019-05-10T08:14:53.569Z,28.5
2019-05-10T08:19:42.318Z,29.6
2019-05-10T08:24:35.159Z,32.4
2019-05-10T08:29:23.016Z,31.3
2019-05-10T08:37:30.433Z,29.2
2019-05-10T08:42:38.034Z,29.6
2019-05-10T08:47:32.321Z,34.1
2019-05-10T08:52:19.425Z,34.3
2019-05-10T08:57:18.207Z,30.5
2019-05-10T09:02:05.613Z,29.7
2019-05-10T09:11:07.887Z,23.8
2019-05-10T09:15:56.964Z,23.5
2019-05-10T09:20:45.229Z,24.1
2019-05-10T09:25:33.804Z,22.6
2019-05-10T09:30:22.512Z,22.1
2019-05-10T09:35:09.634Z,17.8
2019-05-10T09:40:05.551Z,20.8
2019-05-10T09:44:58.879Z,20.5
2019-05-10T09:49:56.601Z,19.9
2019-05-10T09:54:49.234Z,18
2019-05-10T09:59:38.388Z,18.1
2019-05-10T10:04:28.115Z,17.6
2019-05-10T10:09:17.200Z,18.3
2019-05-10T10:14:04.151Z,18.5
2019-05-10T10:18:51.480Z,16.8
2019-05-10T10:23:38.964Z,17.6
2019-05-10T10:28:28.442Z,18.8
2019-05-10T10:33:24.832Z,23
2019-05-10T10:38:18.049Z,23.9
2019-05-10T10:43:07.421Z,23.5
2019-05-10T10:47:57.146Z,23.9
2019-05-10T10:52:45.332Z,25.9
2019-05-10T11:01:50.033Z,23.6
2019-05-10T11:06:39.864Z,21.4
2019-05-10T11:11:30.789Z,17.7
2019-05-10T11:16:25.428Z,9.2
2019-05-10T11:21:13.224Z,5.9
2019-05-10T11:26:01.397Z,5.5
2019-05-10T11:30:50.962Z,5
2019-05-10T11:35:41.511Z,5.5
2019-05-10T11:40:32.613Z,6.2
2019-05-10T11:45:34.382Z,8.3
2019-05-10T11:50:31.325Z,10.3
2019-05-10T11:55:21.586Z,13.7
2019-05-10T12:00:19.727Z,12.9
2019-05-10T12:05:19.810Z,13.8
2019-05-10T12:10:20.036Z,14
2019-05-10T12:15:09.044Z,14.6
2019-05-10T12:19:56.490Z,14.3
2019-05-10T12:24:57.171Z,15
2019-05-10T12:30:03.240Z,12.2
2019-05-10T12:34:56.333Z,10.7
2019-05-10T12:39:43.776Z,10.2
2019-05-10T12:44:33.181Z,9
2019-05-10T12:49:21.455Z,8.8
2019-05-10T12:54:11.135Z,8.7
2019-05-10T12:58:59.754Z,8
2019-05-10T13:03:47.306Z,10.8
2019-05-10T13:08:34.211Z,8.8
2019-05-10T13:13:23.280Z,8.4
2019-05-10T13:18:14.361Z,7.5
2019-05-10T13:23:01.930Z,7.5
2019-05-10T13:27:49.040Z,8.2
2019-05-10T13:32:35.858Z,7.3
2019-05-10T13:37:28.082Z,6.9
2019-05-10T13:42:17.139Z,6.5
2019-05-10T13:47:05.162Z,5.9
2019-05-10T13:51:52.572Z,6.1
2019-05-10T13:56:45.317Z,5.8
2019-05-10T14:01:39.561Z,6.2
2019-05-10T14:06:32.962Z,6.1
2019-05-10T14:11:23.018Z,6.1
2019-05-10T14:16:18.632Z,5.7
2019-05-10T14:21:07.028Z,5.9
2019-05-10T14:25:54.701Z,5.5
2019-05-10T14:30:46.935Z,5.3
2019-05-10T14:35:41.025Z,5.5
2019-05-10T14:40:30.641Z,5.5
2019-05-10T14:45:18.330Z,5.2
2019-05-10T14:50:05.768Z,3.7
2019-05-10T14:54:55.326Z,3.3
2019-05-10T14:59:44.588Z,4
2019-05-10T15:04:46.606Z,3.6
2019-05-10T15:09:35.447Z,3
2019-05-10T15:14:24.337Z,3.4
2019-05-10T15:19:13.183Z,3.9
2019-05-10T15:24:00.814Z,4
2019-05-10T15:28:50.790Z,3.8
2019-05-10T15:33:37.560Z,3.1
2019-05-10T15:38:25.640Z,1.4
2019-05-10T15:43:16.844Z,1.5
2019-05-10T15:48:07.374Z,1.4
2019-05-10T15:52:54.874Z,1.3
2019-05-10T15:57:41.956Z,1.3
2019-05-10T16:02:28.905Z,1.3
2019-05-10T16:07:17.261Z,1.3
2019-05-10T16:12:08.478Z,1.1
2019-05-10T16:16:56.123Z,1
2019-05-10T16:21:46.740Z,1.2
2019-05-10T16:26:38.488Z,0.9
2019-05-10T16:31:26.039Z,1.3
2019-05-10T16:36:12.958Z,2.2
2019-05-10T16:43:14.027Z,1.8
2019-05-10T16:48:06.401Z,1.5
2019-05-10T16:52:59.241Z,1.9
2019-05-10T17:03:24.391Z,2
2019-05-10T17:08:12.625Z,1.9
2019-05-10T17:13:04.726Z,2.3
2019-05-10T17:17:54.223Z,2.6
2019-05-10T17:22:41.017Z,3.1
2019-05-10T17:28:59.338Z,2.7
2019-05-10T17:33:47.214Z,2.6
2019-05-10T17:38:34.714Z,3.4
2019-05-10T17:43:22.850Z,3.3
2019-05-10T17:52:57.918Z,3.9
2019-05-10T17:57:48.571Z,3.1
2019-05-10T18:02:44.495Z,3.5
2019-05-10T18:07:31.318Z,3
2019-05-10T18:12:20.374Z,3.4
2019-05-10T18:17:51.548Z,3
2019-05-10T18:22:43.104Z,3.5
2019-05-10T18:27:33.452Z,3.5
2019-05-10T18:32:20.761Z,3.7
2019-05-10T18:37:08.798Z,4.2
2019-05-10T18:43:07.132Z,5.1
2019-05-10T18:47:54.289Z,3.7
2019-05-10T18:52:41.336Z,4.3
2019-05-10T18:57:30.964Z,4.4
2019-05-10T19:02:20.008Z,4.3
2019-05-10T19:08:12.681Z,4.5
2019-05-10T19:13:04.012Z,4.2
2019-05-10T19:17:53.195Z,5.2
2019-05-10T19:22:42.647Z,4.8
2019-05-10T19:32:00.852Z,4.5
2019-05-10T19:36:47.624Z,4.5
2019-05-10T19:41:34.934Z,5.8
2019-05-10T19:46:23.195Z,5.6
2019-05-10T19:51:11.528Z,5.6
2019-05-10T19:57:42.061Z,5.6
2019-05-10T20:02:29.608Z,4.7
2019-05-10T20:07:17.227Z,5.9
2019-05-10T20:12:04.550Z,6.7
2019-05-10T20:21:42.284Z,6.8
2019-05-10T20:26:29.346Z,7.5
2019-05-10T20:31:16.955Z,8.9
2019-05-10T20:36:04.101Z,10.3
2019-05-10T20:45:26.247Z,10.4
2019-05-10T20:50:14.966Z,9.9
2019-05-10T20:55:02.169Z,12.9
2019-05-10T20:59:49.260Z,14.5
2019-05-10T21:09:18.842Z,12.6
2019-05-10T21:14:06.120Z,12.5
2019-05-10T21:18:53.207Z,13.6
2019-05-10T21:23:40.101Z,15.3
2019-05-10T21:31:57.485Z,14.5
2019-05-10T21:36:44.694Z,14.4
2019-05-10T21:41:32.301Z,16.4
2019-05-10T21:46:19.908Z,16.2
2019-05-10T21:54:49.729Z,13.6
2019-05-10T21:59:36.720Z,15
2019-05-10T22:04:24.178Z,14.7
2019-05-10T22:14:36.645Z,10.8
2019-05-10T22:19:29.307Z,11.9
2019-05-10T22:24:17.546Z,12.3
2019-05-10T22:29:05.138Z,12.6
2019-05-10T22:37:18.854Z,10.8
2019-05-10T22:42:07.773Z,10
2019-05-10T22:46:54.970Z,10.4
2019-05-10T22:51:42.213Z,10.9
2019-05-10T22:59:38.112Z,10
2019-05-10T23:04:26.291Z,9.3
2019-05-10T23:09:24.291Z,10.9
2019-05-10T23:14:11.935Z,11.3
2019-05-10T23:23:41.666Z,9.7
2019-05-10T23:28:28.932Z,9.6
2019-05-10T23:33:15.744Z,11.1
2019-05-10T23:38:02.680Z,11.2
2019-05-10T23:45:57.660Z,10.6
2019-05-10T23:50:44.777Z,10.3
2019-05-10T23:55:31.871Z,10.7
